Map

Track Data

SID SEASON NUMBER BASIN SUBBASIN NAME ISO_TIME NATURE LAT LON WMO_WIND WMO_PRES WMO_AGENCY TRACK_TYPE DIST2LAND LANDFALL IFLAG USA_AGENCY USA_ATCF_ID USA_LAT USA_LON USA_RECORD USA_STATUS USA_WIND USA_PRES USA_SSHS USA_R34_NE USA_R34_SE USA_R34_SW USA_R34_NW USA_R50_NE USA_R50_SE USA_R50_SW USA_R50_NW USA_R64_NE USA_R64_SE USA_R64_SW USA_R64_NW USA_POCI USA_ROCI USA_RMW USA_EYE TOKYO_LAT TOKYO_LON TOKYO_GRADE TOKYO_WIND TOKYO_PRES TOKYO_R50_DIR TOKYO_R50_LONG TOKYO_R50_SHORT TOKYO_R30_DIR TOKYO_R30_LONG TOKYO_R30_SHORT TOKYO_LAND CMA_LAT CMA_LON CMA_CAT CMA_WIND CMA_PRES HKO_LAT HKO_LON HKO_CAT HKO_WIND HKO_PRES NEWDELHI_LAT NEWDELHI_LON NEWDELHI_GRADE NEWDELHI_WIND NEWDELHI_PRES NEWDELHI_CI NEWDELHI_DP NEWDELHI_POCI REUNION_LAT REUNION_LON REUNION_TYPE REUNION_WIND REUNION_PRES REUNION_TNUM REUNION_CI REUNION_RMW REUNION_R34_NE REUNION_R34_SE REUNION_R34_SW REUNION_R34_NW REUNION_R50_NE REUNION_R50_SE REUNION_R50_SW REUNION_R50_NW REUNION_R64_NE REUNION_R64_SE REUNION_R64_SW REUNION_R64_NW BOM_LAT BOM_LON BOM_TYPE BOM_WIND BOM_PRES BOM_TNUM BOM_CI BOM_RMW BOM_R34_NE BOM_R34_SE BOM_R34_SW BOM_R34_NW BOM_R50_NE BOM_R50_SE BOM_R50_SW BOM_R50_NW BOM_R64_NE BOM_R64_SE BOM_R64_SW BOM_R64_NW BOM_ROCI BOM_POCI BOM_EYE BOM_POS_METHOD BOM_PRES_METHOD NADI_LAT NADI_LON NADI_CAT NADI_WIND NADI_PRES WELLINGTON_LAT WELLINGTON_LON WELLINGTON_WIND WELLINGTON_PRES DS824_LAT DS824_LON DS824_STAGE DS824_WIND DS824_PRES TD9636_LAT TD9636_LON TD9636_STAGE TD9636_WIND TD9636_PRES TD9635_LAT TD9635_LON TD9635_WIND TD9635_PRES TD9635_ROCI NEUMANN_LAT NEUMANN_LON NEUMANN_CLASS NEUMANN_WIND NEUMANN_PRES MLC_LAT MLC_LON MLC_CLASS MLC_WIND MLC_PRES USA_GUST BOM_GUST BOM_GUST_PER REUNION_GUST REUNION_GUST_PER USA_SEAHGT USA_SEARAD_NE USA_SEARAD_SE USA_SEARAD_SW USA_SEARAD_NW STORM_SPEED STORM_DIR
1960332N08105 1960 95 WP MM NOT_NAMED 1960-11-26 12:00:00 NR 8.20000 105.300 spur-merge 67 55 __________O___ -1 8.20000 105.300 1 3 292
1960332N08105 1960 95 WP MM NOT_NAMED 1960-11-26 15:00:00 NR 8.26388 105.142 spur-merge 49 46 __________P___ -1 8.26388 105.142 1 4 291
1960332N08105 1960 95 WP MM NOT_NAMED 1960-11-26 18:00:00 NR 8.33222 104.948 spur-merge 44 33 __________P___ -1 8.33222 104.948 1 5 288
1960332N08105 1960 95 WP MM NOT_NAMED 1960-11-26 21:00:00 NR 8.40949 104.679 spur-merge 40 40 __________P___ -1 8.40949 104.679 1 7 285
1960332N08105 1960 95 WP MM NOT_NAMED 1960-11-27 00:00:00 NR 8.50000 104.300 spur-merge 64 64 __________O___ -1 8.50000 104.300 1 9 283
1960332N08105 1960 95 WP MM NOT_NAMED 1960-11-27 03:00:00 NR 8.60669 103.785 spur-merge 112 112 __________P___ -1 8.60669 103.785 1 12 281
1960332N08105 1960 95 WP MM NOT_NAMED 1960-11-27 06:00:00 NR 8.72760 103.157 spur-merge 176 176 __________P___ -1 8.72760 103.157 1 13 281
1960332N08105 1960 95 WP MM NOT_NAMED 1960-11-27 09:00:00 NR 8.85966 102.451 spur-merge 216 178 __________P___ -1 8.85966 102.451 1 15 281
1960332N08105 1960 95 WP MM NOT_NAMED 1960-11-27 12:00:00 NR 9.00000 101.700 spur-merge 178 141 __________O___ -1 9.00000 101.700 1 14 286
1960332N08105 1960 95 WP MM NOT_NAMED 1960-11-27 15:00:00 NR 9.24071 101.128 spur-merge 133 83 __________P___ -1 9.24071 101.128 1 13 292
1960332N08105 1960 95 WP MM NOT_NAMED 1960-11-27 18:00:00 NR 9.47373 100.496 spur-merge 83 44 __________P___ -1 9.47373 100.496 1 15 285
1960332N08105 1960 95 NI BB NOT_NAMED 1960-11-27 21:00:00 NR 9.62019 99.6914 spur-merge 44 0 __________P___ -1 9.62019 99.6914 1 19 274
1960332N08105 1960 95 NI BB NOT_NAMED 1960-11-28 00:00:00 NR 9.60000 98.6000 spur-merge 0 0 __________O___ -1 9.60000 98.6000 1 27 261
1960332N08105 1960 95 NI BB NOT_NAMED 1960-11-28 03:00:00 NR 9.20059 97.0068 spur-merge 146 146 __________P___ -1 9.20059 97.0068 1 35 254
1960332N08105 1960 95 NI BB NOT_NAMED 1960-11-28 06:00:00 NR 8.64243 95.1466 spur-merge 336 323 __________P___ -1 8.64243 95.1466 1 39 253
1960332N08105 1960 95 NI BB NOT_NAMED 1960-11-28 09:00:00 NR 8.08716 93.2142 spur-merge 356 356 __________P___ -1 8.08716 93.2142 1 38 256
1960332N08105 1960 95 NI BB NOT_NAMED 1960-11-28 12:00:00 NR 7.70000 91.4000 spur-merge 481 481 __________O___ -1 7.70000 91.4000 1 35 264
1960332N08105 1960 95 NI BB NOT_NAMED 1960-11-28 15:00:00 NR 7.69742 89.7279 spur-merge 651 651 __________P___ -1 7.60625 89.8442 1 32 273
1960332N08105 1960 95 NI BB NOT_NAMED 1960-11-28 18:00:00 NR 7.88251 88.2242 spur-merge 702 586 __________P___ -1 7.76443 88.5100 1 27 280
1960332N08105 1960 95 NI BB NOT_NAMED 1960-11-28 21:00:00 NR 8.17612 87.0076 spur-merge 577 495 __________P___ -1 8.09066 87.3201 1 21 287
1960332N08105 1960 95 NI BB NOT_NAMED 1960-11-29 00:00:00 NR 8.50000 86.2000 spur-merge 495 476 __________O___ -1 8.50000 86.2000 1 12 298
1960332N08105 1960 95 NI BB NOT_NAMED 1960-11-29 03:00:00 NR 8.72497 85.9529 spur-merge 478 478 ______________ -1 1 5 348
1960332N08105 1960 95 NI BB NOT_NAMED 1960-11-29 06:00:00 NR 8.96749 86.1016 spur-merge 498 ______________ -1 1 6 32

Digital Typhoon Data and Search

About IBTrACS Database

This database is a web-friendly format of International Best Track Archive for Climate Stewardship (IBTrACS), a global best track data archive curated by NOAA dating back to 1842.

Updated: 2021-11-26